createdAt,value
2023-03-08T10:53:10.177Z,17.53
2023-03-08T10:55:59.924Z,17.73
2023-03-08T10:58:48.295Z,17.70
2023-03-08T11:01:36.368Z,21.57
2023-03-08T11:04:24.679Z,18.47
2023-03-08T11:07:12.775Z,21.43
2023-03-08T11:10:16.317Z,16.77
2023-03-08T11:13:10.111Z,23.53
2023-03-08T11:16:16.255Z,17.23
2023-03-08T11:19:10.751Z,16.80
2023-03-08T11:22:04.332Z,17.73
2023-03-08T11:25:05.018Z,21.60
2023-03-08T11:28:02.459Z,19.70
2023-03-08T11:30:58.063Z,23.90
2023-03-08T11:34:20.317Z,18.83
2023-03-08T11:37:12.866Z,18.87
2023-03-08T11:40:06.752Z,17.73
2023-03-08T11:43:02.362Z,18.13
2023-03-08T11:45:55.525Z,17.43
2023-03-08T11:48:53.909Z,18.37
2023-03-08T11:51:45.722Z,19.47
2023-03-08T11:54:43.113Z,22.00
2023-03-08T11:57:34.428Z,19.03
2023-03-08T12:00:31.442Z,17.97
2023-03-08T12:03:22.682Z,19.17
2023-03-08T12:06:26.515Z,18.67
2023-03-08T12:09:22.648Z,20.93
2023-03-08T12:12:12.561Z,24.60
2023-03-08T12:15:02.182Z,18.80
2023-03-08T12:17:51.675Z,20.03
2023-03-08T12:20:42.237Z,17.23
2023-03-08T12:23:32.756Z,22.90
2023-03-08T12:26:22.247Z,19.07
2023-03-08T12:29:14.790Z,28.10
2023-03-08T12:32:02.013Z,18.57
2023-03-08T12:34:48.947Z,22.47
2023-03-08T12:37:36.862Z,19.30
2023-03-08T12:40:39.034Z,19.03
2023-03-08T12:43:31.441Z,20.40
2023-03-08T12:46:18.263Z,18.37
2023-03-08T12:49:04.975Z,20.30
2023-03-08T12:52:03.879Z,21.30
2023-03-08T12:54:59.206Z,22.07
2023-03-08T12:57:49.705Z,17.10
2023-03-08T13:00:37.761Z,19.83
2023-03-08T13:03:29.566Z,21.13
2023-03-08T13:06:33.725Z,18.90
2023-03-08T13:09:23.931Z,17.00
2023-03-08T13:12:24.816Z,17.00
2023-03-08T13:15:24.286Z,24.40
2023-03-08T13:18:16.281Z,17.50
2023-03-08T13:21:19.922Z,31.00
2023-03-08T13:24:13.159Z,21.33
2023-03-08T13:27:11.507Z,16.30
2023-03-08T13:30:08.997Z,19.63
2023-03-08T13:32:55.486Z,13.53
2023-03-08T13:35:42.307Z,17.63
2023-03-08T13:38:31.490Z,19.83
2023-03-08T13:41:17.961Z,20.90
2023-03-08T13:44:05.978Z,16.37
2023-03-08T13:46:56.350Z,15.90
2023-03-08T13:49:45.609Z,20.40
2023-03-08T13:52:35.638Z,13.37
2023-03-08T13:55:26.189Z,18.90
2023-03-08T13:58:28.151Z,20.20
2023-03-08T14:01:17.318Z,15.47
2023-03-08T14:04:12.582Z,20.37
2023-03-08T14:07:01.322Z,15.40
2023-03-08T14:09:48.419Z,19.77
2023-03-08T14:12:35.508Z,15.63
2023-03-08T14:15:22.913Z,16.20
2023-03-08T14:18:21.666Z,18.30
2023-03-08T14:21:15.684Z,19.90
2023-03-08T14:24:06.176Z,17.03
2023-03-08T14:26:57.810Z,14.63
2023-03-08T14:29:45.814Z,14.33
2023-03-08T14:32:35.833Z,14.80
2023-03-08T14:35:25.172Z,13.47
2023-03-08T14:38:21.790Z,17.50
2023-03-08T14:41:08.195Z,18.03
2023-03-08T14:43:55.143Z,21.40
2023-03-08T14:46:42.671Z,16.07
2023-03-08T14:49:30.915Z,13.47
2023-03-08T14:52:21.530Z,10.33
2023-03-08T14:55:22.619Z,15.30
2023-03-08T14:58:11.897Z,11.20
2023-03-08T15:01:01.009Z,12.40
2023-03-08T15:03:50.109Z,10.97
2023-03-08T15:06:41.215Z,10.77
2023-03-08T15:09:30.067Z,13.43
2023-03-08T15:12:19.104Z,16.70
2023-03-08T15:15:14.059Z,12.63
2023-03-08T15:18:01.712Z,10.90
2023-03-08T15:20:50.637Z,10.17
2023-03-08T15:23:39.700Z,10.63
2023-03-08T15:26:29.561Z,10.67
2023-03-08T15:29:27.016Z,10.03
2023-03-08T15:32:15.401Z,13.77
2023-03-08T15:35:03.083Z,9.87
2023-03-08T15:37:50.086Z,10.93
2023-03-08T15:40:37.093Z,8.57
2023-03-08T15:43:25.460Z,6.73
2023-03-08T15:46:15.610Z,7.67
2023-03-08T15:49:02.799Z,6.50
2023-03-08T15:51:49.582Z,6.60
2023-03-08T15:54:36.597Z,5.77
2023-03-08T15:57:24.448Z,5.60
2023-03-08T16:00:14.166Z,7.03
2023-03-08T16:03:03.182Z,6.60
2023-03-08T16:05:49.692Z,5.57
2023-03-08T16:08:37.257Z,7.13
2023-03-08T16:11:24.011Z,4.07
2023-03-08T16:14:10.460Z,7.20
2023-03-08T16:16:57.144Z,4.53
2023-03-08T16:19:45.753Z,7.33
2023-03-08T16:22:32.468Z,5.90
2023-03-08T16:25:19.592Z,8.23
2023-03-08T16:28:06.491Z,7.27
2023-03-08T16:30:53.048Z,7.80
2023-03-08T16:33:39.862Z,4.33
2023-03-08T16:36:28.033Z,4.00
2023-03-08T16:39:14.972Z,4.60
2023-03-08T16:42:01.838Z,6.27
2023-03-08T16:44:50.594Z,5.40
2023-03-08T16:47:37.322Z,9.27
2023-03-08T16:50:26.384Z,9.13
2023-03-08T16:53:14.454Z,18.63
2023-03-08T16:56:01.440Z,8.07
2023-03-08T16:58:48.768Z,7.37
2023-03-08T17:01:35.730Z,7.53
2023-03-08T17:04:23.160Z,6.77
2023-03-08T17:07:10.523Z,8.50
2023-03-08T17:09:59.051Z,6.20
2023-03-08T17:12:45.878Z,7.70
2023-03-08T17:15:32.809Z,8.70
2023-03-08T17:18:19.834Z,7.13
2023-03-08T17:21:07.489Z,7.20
2023-03-08T17:23:54.201Z,26.83
2023-03-08T17:26:45.241Z,21.07
2023-03-08T17:29:31.950Z,12.60
2023-03-08T17:32:19.086Z,24.67
2023-03-08T17:35:06.749Z,34.20
2023-03-08T17:37:54.052Z,16.73
2023-03-08T17:40:41.103Z,10.37
2023-03-08T17:43:29.822Z,7.03
2023-03-08T17:46:19.004Z,6.57
2023-03-08T17:49:06.602Z,13.50
2023-03-08T17:51:55.491Z,10.70
2023-03-08T17:54:42.646Z,10.43
2023-03-08T17:57:29.831Z,10.00
2023-03-08T18:00:19.775Z,9.20
2023-03-08T18:03:07.460Z,10.73
2023-03-08T18:05:55.060Z,10.20
2023-03-08T18:08:42.644Z,9.43
2023-03-08T18:11:30.124Z,11.83
2023-03-08T18:14:16.901Z,18.67
2023-03-08T18:17:05.486Z,10.23
2023-03-08T18:19:52.323Z,9.93
